Time;durP1;ratioP1;P1;durP2;ratioP2;P2;SDS_P1;SDS_P2;PMS_P1;PMS_P2;Temp;Humidity;BMP_temperature;BMP_pressure;BME280_temperature;BME280_humidity;BME280_pressure;Samples;Min_cycle;Max_cycle;Signal;HPM_P1;HPM_P2
2021/10/19 00:02:11;;;;;;;62.40;58.70;;;13.80;99.90;;;;;;4402669;32;20214;-63
2021/10/19 00:04:38;;;;;;;69.63;65.63;;;13.90;99.90;;;;;;4398569;32;20480;-63
2021/10/19 00:07:05;;;;;;;66.93;63.13;;;13.80;99.90;;;;;;4390498;32;20166;-63
2021/10/19 00:09:32;;;;;;;70.87;66.77;;;13.80;99.90;;;;;;4398127;32;20614;-63
2021/10/19 00:12:02;;;;;;;64.83;60.70;;;13.80;99.90;;;;;;4407211;32;20156;-64
2021/10/19 00:14:28;;;;;;;65.60;61.97;;;13.80;99.90;;;;;;4407308;32;20163;-63
2021/10/19 00:16:55;;;;;;;66.17;62.27;;;13.90;99.90;;;;;;4406082;32;20201;-63
2021/10/19 00:19:26;;;;;;;65.47;61.53;;;13.90;99.90;;;;;;4404919;32;20189;-63
2021/10/19 00:21:53;;;;;;;66.90;62.97;;;13.90;99.90;;;;;;4405883;32;20174;-63
2021/10/19 00:24:20;;;;;;;68.23;63.97;;;13.90;99.90;;;;;;4405434;32;20669;-64
2021/10/19 00:26:47;;;;;;;61.60;57.57;;;13.90;99.90;;;;;;4405791;32;20203;-63
2021/10/19 00:29:13;;;;;;;62.97;59.20;;;14.00;99.90;;;;;;4405287;32;20471;-64
2021/10/19 00:31:40;;;;;;;64.37;60.67;;;14.00;99.90;;;;;;4405919;32;20207;-64
2021/10/19 00:34:07;;;;;;;69.13;65.17;;;14.00;99.90;;;;;;4406291;32;20180;-63
2021/10/19 00:36:35;;;;;;;60.47;56.87;;;14.00;99.90;;;;;;4405876;32;20171;-63
2021/10/19 00:39:02;;;;;;;66.67;62.63;;;14.00;99.90;;;;;;4405943;32;20167;-64
2021/10/19 00:41:29;;;;;;;66.67;62.70;;;14.00;99.90;;;;;;4405794;32;20169;-63
2021/10/19 00:43:56;;;;;;;65.53;61.97;;;14.00;99.90;;;;;;4405778;32;20198;-64
2021/10/19 00:46:25;;;;;;;70.07;65.97;;;14.00;99.90;;;;;;4407533;32;20151;-63
2021/10/19 00:48:52;;;;;;;69.00;64.63;;;14.00;99.90;;;;;;4404936;32;20163;-63
2021/10/19 00:51:19;;;;;;;63.37;59.63;;;14.00;99.90;;;;;;4405610;32;20177;-64
2021/10/19 00:53:48;;;;;;;68.73;64.83;;;14.00;99.90;;;;;;4406432;32;20209;-63
2021/10/19 00:56:15;;;;;;;65.67;61.83;;;14.10;99.90;;;;;;4406943;32;20178;-63
2021/10/19 00:58:42;;;;;;;63.70;59.87;;;14.10;99.90;;;;;;4405083;32;20182;-63
2021/10/19 01:01:11;;;;;;;64.00;60.13;;;14.10;99.90;;;;;;4405499;32;20152;-63
2021/10/19 01:03:38;;;;;;;61.50;57.70;;;14.10;99.90;;;;;;4405153;32;20183;-63
2021/10/19 01:06:08;;;;;;;65.10;61.27;;;14.00;99.90;;;;;;4405386;32;20155;-64
2021/10/19 01:08:38;;;;;;;63.47;59.73;;;14.00;99.90;;;;;;4404459;32;20164;-63
2021/10/19 01:11:07;;;;;;;61.60;57.80;;;14.10;99.90;;;;;;4405486;32;20164;-64
2021/10/19 01:13:38;;;;;;;66.90;62.73;;;14.10;99.90;;;;;;4405858;32;20168;-63
2021/10/19 01:16:07;;;;;;;69.53;65.60;;;14.10;99.90;;;;;;4405824;32;20158;-64
2021/10/19 01:18:34;;;;;;;68.73;64.80;;;14.20;99.90;;;;;;4405887;32;20630;-63
2021/10/19 01:21:04;;;;;;;66.87;62.87;;;14.20;99.90;;;;;;4396490;32;20582;-63
2021/10/19 01:23:34;;;;;;;65.20;61.20;;;14.20;99.90;;;;;;4395308;32;20239;-63
2021/10/19 01:26:06;;;;;;;66.77;62.83;;;14.20;99.90;;;;;;4395830;32;20207;-63
2021/10/19 01:28:35;;;;;;;70.20;65.80;;;14.10;99.90;;;;;;4397143;32;20230;-62
2021/10/19 01:31:06;;;;;;;67.47;63.17;;;14.10;99.90;;;;;;4397643;32;20156;-63
2021/10/19 01:33:33;;;;;;;71.23;66.97;;;13.90;99.90;;;;;;4399549;32;20163;-62
2021/10/19 01:36:03;;;;;;;76.30;71.90;;;13.80;99.90;;;;;;4399462;32;20167;-62
2021/10/19 01:38:33;;;;;;;77.87;73.37;;;13.80;99.90;;;;;;4399398;32;20245;-63
2021/10/19 01:41:01;;;;;;;84.80;79.90;;;13.70;99.90;;;;;;4395457;32;20811;-62
2021/10/19 01:43:30;;;;;;;93.77;88.33;;;13.70;99.90;;;;;;4396745;32;20620;-63
2021/10/19 01:45:58;;;;;;;94.43;89.00;;;13.60;99.90;;;;;;4401479;32;20501;-63
2021/10/19 01:48:26;;;;;;;103.13;97.60;;;13.60;99.90;;;;;;4399103;32;20191;-63
2021/10/19 01:50:53;;;;;;;103.00;97.10;;;13.60;99.90;;;;;;4401550;32;20572;-63
2021/10/19 01:53:22;;;;;;;110.70;104.87;;;13.60;99.90;;;;;;4406242;32;20266;-62
2021/10/19 01:55:49;;;;;;;110.93;105.07;;;13.60;99.90;;;;;;4397940;32;20193;-63
2021/10/19 01:58:22;;;;;;;111.57;105.57;;;13.60;99.90;;;;;;4404521;32;20517;-63
2021/10/19 02:00:50;;;;;;;117.03;110.77;;;13.60;99.90;;;;;;4392738;32;20632;-62
2021/10/19 02:03:18;;;;;;;109.83;103.53;;;13.60;99.90;;;;;;4404219;32;20191;-63
2021/10/19 02:05:46;;;;;;;113.40;107.00;;;13.60;99.90;;;;;;4408468;32;20175;-63
2021/10/19 02:08:14;;;;;;;103.87;98.00;;;13.60;99.90;;;;;;4407035;32;20178;-63
2021/10/19 02:10:42;;;;;;;107.37;101.33;;;13.60;99.90;;;;;;4407878;32;20641;-62
2021/10/19 02:13:10;;;;;;;111.67;105.40;;;13.60;99.90;;;;;;4407181;32;20175;-63
2021/10/19 02:15:38;;;;;;;111.33;105.10;;;13.70;99.90;;;;;;4407791;32;20185;-63
2021/10/19 02:18:06;;;;;;;109.23;102.47;;;13.70;99.90;;;;;;4408866;32;20152;-63
2021/10/19 02:20:36;;;;;;;109.90;103.50;;;13.70;99.90;;;;;;4407679;32;20191;-63
2021/10/19 02:23:03;;;;;;;115.40;109.00;;;13.80;99.90;;;;;;4408006;32;20175;-62
2021/10/19 02:25:30;;;;;;;107.30;101.10;;;13.80;99.90;;;;;;4407501;32;20203;-63
2021/10/19 02:27:59;;;;;;;107.67;101.37;;;13.80;99.90;;;;;;4407201;32;20164;-63
2021/10/19 02:30:27;;;;;;;108.90;102.50;;;13.80;99.90;;;;;;4407208;32;20176;-63
2021/10/19 02:32:54;;;;;;;111.33;105.23;;;13.80;99.90;;;;;;4406746;32;20535;-63
2021/10/19 02:35:21;;;;;;;104.03;98.23;;;13.90;99.90;;;;;;4407491;32;20171;-63
2021/10/19 02:37:50;;;;;;;99.47;93.60;;;13.90;99.90;;;;;;4408624;32;20159;-63
2021/10/19 02:40:18;;;;;;;104.10;97.77;;;13.90;99.90;;;;;;4409015;32;20211;-63
2021/10/19 02:42:46;;;;;;;101.90;95.53;;;13.90;99.90;;;;;;4407113;32;20592;-63
2021/10/19 02:45:16;;;;;;;105.60;99.37;;;13.90;99.90;;;;;;4408823;32;20159;-63
2021/10/19 02:47:44;;;;;;;100.30;94.20;;;14.00;99.90;;;;;;4407863;32;20167;-63
2021/10/19 02:50:12;;;;;;;104.63;98.30;;;14.10;99.90;;;;;;4407218;32;20182;-63
2021/10/19 02:52:39;;;;;;;97.57;91.70;;;14.10;99.90;;;;;;4407701;32;20171;-63
2021/10/19 02:55:08;;;;;;;103.10;96.93;;;14.00;99.90;;;;;;4408179;32;20159;-63
2021/10/19 02:57:34;;;;;;;106.33;100.10;;;14.10;99.90;;;;;;4407115;32;20198;-63
2021/10/19 03:00:01;;;;;;;109.77;103.57;;;14.10;99.90;;;;;;4408671;32;20213;-63
2021/10/19 03:02:30;;;;;;;106.27;100.03;;;14.10;99.90;;;;;;4406474;32;20229;-63
2021/10/19 03:04:56;;;;;;;104.73;98.87;;;14.10;99.90;;;;;;4404703;32;20491;-62
2021/10/19 03:07:23;;;;;;;104.97;98.77;;;14.10;99.90;;;;;;4403412;32;20500;-63
2021/10/19 03:09:50;;;;;;;108.80;102.70;;;14.10;99.90;;;;;;4408647;32;20152;-62
2021/10/19 03:12:17;;;;;;;102.77;96.83;;;14.10;99.90;;;;;;4407956;32;20167;-63
2021/10/19 03:14:45;;;;;;;104.43;98.37;;;14.10;99.90;;;;;;4407362;32;20178;-62
2021/10/19 03:17:12;;;;;;;106.30;100.27;;;14.10;99.90;;;;;;4407259;32;20624;-62
2021/10/19 03:19:40;;;;;;;107.20;101.20;;;14.10;99.90;;;;;;4406452;32;20219;-62
2021/10/19 03:22:07;;;;;;;106.97;101.07;;;14.10;99.90;;;;;;4407180;32;20185;-62
2021/10/19 03:24:34;;;;;;;98.93;93.03;;;14.20;99.90;;;;;;4407846;32;20485;-63
2021/10/19 03:27:03;;;;;;;98.77;93.07;;;14.20;99.90;;;;;;4405968;32;20159;-63
2021/10/19 03:29:31;;;;;;;100.70;94.87;;;14.20;99.90;;;;;;4406614;32;20166;-62
2021/10/19 03:32:01;;;;;;;100.77;94.93;;;14.20;99.90;;;;;;4408104;32;20178;-63
2021/10/19 03:34:28;;;;;;;99.40;93.53;;;14.10;99.90;;;;;;4406882;32;20593;-63
2021/10/19 03:36:56;;;;;;;102.90;97.13;;;14.20;99.90;;;;;;4405749;32;20171;-63
2021/10/19 03:39:23;;;;;;;102.83;96.53;;;14.20;99.90;;;;;;4406505;32;20170;-62
2021/10/19 03:41:49;;;;;;;99.03;93.00;;;14.20;99.90;;;;;;4405425;32;20231;-63
2021/10/19 03:44:16;;;;;;;105.00;98.87;;;14.20;99.90;;;;;;4408089;32;20576;-62
2021/10/19 03:46:43;;;;;;;99.47;93.73;;;14.20;99.90;;;;;;4406597;32;20520;-63
2021/10/19 03:49:10;;;;;;;100.70;94.93;;;14.30;99.90;;;;;;4406807;32;20167;-62
2021/10/19 03:51:43;;;;;;;103.70;98.03;;;14.30;99.90;;;;;;4405669;32;20160;-62
2021/10/19 03:54:11;;;;;;;100.47;94.67;;;14.30;99.90;;;;;;4407259;32;20152;-63
2021/10/19 03:56:38;;;;;;;103.43;97.63;;;14.20;99.90;;;;;;4405842;32;20179;-63
2021/10/19 03:59:08;;;;;;;107.77;101.57;;;14.20;99.90;;;;;;4406257;32;20177;-63
2021/10/19 04:01:35;;;;;;;104.77;98.90;;;14.30;99.90;;;;;;4405466;32;20156;-63
2021/10/19 04:04:01;;;;;;;91.30;85.90;;;14.40;99.90;;;;;;4406562;32;20449;-62
2021/10/19 04:06:29;;;;;;;101.37;95.70;;;14.30;99.90;;;;;;4405521;32;20249;-63
2021/10/19 04:08:57;;;;;;;110.67;104.43;;;14.40;99.90;;;;;;4405379;32;20624;-63
2021/10/19 04:11:27;;;;;;;100.67;95.03;;;14.40;99.90;;;;;;4396357;32;20205;-62
2021/10/19 04:13:54;;;;;;;100.37;94.73;;;14.40;99.90;;;;;;4403849;32;20177;-63
2021/10/19 04:16:21;;;;;;;106.03;100.03;;;14.40;99.90;;;;;;4405339;32;20170;-63
2021/10/19 04:18:52;;;;;;;105.77;99.87;;;14.40;99.90;;;;;;4405921;32;20188;-63
2021/10/19 04:21:19;;;;;;;102.33;96.43;;;14.40;99.90;;;;;;4405952;32;20164;-63
2021/10/19 04:23:47;;;;;;;103.67;97.60;;;14.40;99.90;;;;;;4405824;32;20154;-62
2021/10/19 04:26:13;;;;;;;98.17;92.43;;;14.40;99.90;;;;;;4405474;32;20204;-62
2021/10/19 04:28:44;;;;;;;106.50;100.27;;;14.40;99.90;;;;;;4406016;32;20487;-64
2021/10/19 04:31:10;;;;;;;100.03;94.30;;;14.40;99.90;;;;;;4405034;32;20162;-63
2021/10/19 04:33:37;;;;;;;98.50;92.77;;;14.40;99.90;;;;;;4407474;32;20610;-64
2021/10/19 04:36:05;;;;;;;104.93;98.53;;;14.50;99.90;;;;;;4405271;32;20156;-64
2021/10/19 04:38:32;;;;;;;100.60;94.83;;;14.50;99.90;;;;;;4406243;32;20148;-64
2021/10/19 04:40:59;;;;;;;99.83;94.00;;;14.40;99.90;;;;;;4404481;32;20187;-63
2021/10/19 04:43:26;;;;;;;101.97;96.27;;;14.40;99.90;;;;;;4405680;32;20170;-63
2021/10/19 04:45:54;;;;;;;97.67;91.97;;;14.50;99.90;;;;;;4405703;32;20491;-64
2021/10/19 04:48:22;;;;;;;99.37;93.23;;;14.50;99.90;;;;;;4405911;32;20186;-63
2021/10/19 04:50:49;;;;;;;96.43;90.77;;;14.50;99.90;;;;;;4405038;32;20183;-63
2021/10/19 04:53:16;;;;;;;104.60;98.63;;;14.50;99.90;;;;;;4405571;32;20167;-63
2021/10/19 04:55:43;;;;;;;99.30;93.60;;;14.60;99.90;;;;;;4406195;32;20144;-63
2021/10/19 04:58:10;;;;;;;99.23;93.63;;;14.60;99.90;;;;;;4406914;32;20572;-63
2021/10/19 05:00:37;;;;;;;95.83;90.03;;;14.60;99.90;;;;;;4405023;32;20193;-63
2021/10/19 05:03:05;;;;;;;104.43;98.43;;;14.50;99.90;;;;;;4405261;32;20174;-63
2021/10/19 05:05:35;;;;;;;95.67;90.20;;;14.50;99.90;;;;;;4401335;32;20155;-63
2021/10/19 05:08:02;;;;;;;98.17;92.50;;;14.50;99.90;;;;;;4405222;32;20186;-63
2021/10/19 05:10:28;;;;;;;103.10;97.33;;;14.50;99.90;;;;;;4404907;32;20599;-63
2021/10/19 05:12:58;;;;;;;96.27;90.87;;;14.60;99.90;;;;;;4405479;32;20163;-63
2021/10/19 05:15:26;;;;;;;95.13;89.53;;;14.50;99.90;;;;;;4406747;32;20195;-63
2021/10/19 05:17:53;;;;;;;95.20;89.57;;;14.60;99.90;;;;;;4406362;32;20235;-63
2021/10/19 05:20:22;;;;;;;99.77;93.97;;;14.60;99.90;;;;;;4404525;32;20180;-63
2021/10/19 05:22:50;;;;;;;92.00;86.70;;;14.60;99.90;;;;;;4404085;32;20151;-63
2021/10/19 05:25:17;;;;;;;96.23;90.60;;;14.60;99.90;;;;;;4395974;32;20182;-64
2021/10/19 05:27:45;;;;;;;103.27;97.50;;;14.60;99.90;;;;;;4397862;32;20164;-63
2021/10/19 05:30:13;;;;;;;95.40;90.10;;;14.60;99.90;;;;;;4391062;32;20160;-63
2021/10/19 05:32:40;;;;;;;95.87;90.57;;;14.60;99.90;;;;;;4400718;32;20506;-64
2021/10/19 05:35:07;;;;;;;103.73;97.90;;;14.60;99.90;;;;;;4405257;32;20186;-64
2021/10/19 05:37:36;;;;;;;101.37;95.57;;;14.60;99.90;;;;;;4396549;32;20163;-64
2021/10/19 05:40:03;;;;;;;102.97;97.03;;;14.60;99.90;;;;;;4406185;32;20199;-63
2021/10/19 05:42:30;;;;;;;100.47;94.80;;;14.60;99.90;;;;;;4400894;32;20163;-64
2021/10/19 05:44:57;;;;;;;107.87;101.83;;;14.60;99.90;;;;;;4398377;32;20219;-63
2021/10/19 05:47:24;;;;;;;107.67;101.73;;;14.60;99.90;;;;;;4405258;32;20183;-64
2021/10/19 05:49:51;;;;;;;109.83;103.80;;;14.60;99.90;;;;;;4397274;32;20160;-63
2021/10/19 05:52:18;;;;;;;108.67;102.67;;;14.70;99.90;;;;;;4389950;32;20182;-63
2021/10/19 05:54:46;;;;;;;113.37;107.30;;;14.60;99.90;;;;;;4400842;32;20183;-64
2021/10/19 05:57:15;;;;;;;108.03;102.03;;;14.60;99.90;;;;;;4399077;32;20160;-63
2021/10/19 05:59:43;;;;;;;114.03;107.60;;;14.60;99.90;;;;;;4393387;32;20152;-63
2021/10/19 06:02:10;;;;;;;105.63;99.83;;;14.70;99.90;;;;;;4390471;32;20212;-63
2021/10/19 06:04:37;;;;;;;114.50;108.23;;;14.60;99.90;;;;;;4392655;32;20215;-63
2021/10/19 06:07:04;;;;;;;116.77;110.40;;;14.60;99.90;;;;;;4393548;32;20172;-63
2021/10/19 06:09:31;;;;;;;121.33;114.67;;;14.60;99.90;;;;;;4401124;32;20160;-64
2021/10/19 06:12:00;;;;;;;114.97;108.53;;;14.60;99.90;;;;;;4406596;32;20182;-63
2021/10/19 06:14:27;;;;;;;110.40;104.23;;;14.70;99.90;;;;;;4408052;32;20166;-63
2021/10/19 06:16:54;;;;;;;119.83;113.03;;;14.70;99.90;;;;;;4407000;32;20226;-63
2021/10/19 06:19:21;;;;;;;117.33;110.83;;;14.70;99.90;;;;;;4407550;32;20222;-63
2021/10/19 06:21:48;;;;;;;112.23;105.83;;;14.80;99.90;;;;;;4407581;32;20178;-64
2021/10/19 06:24:17;;;;;;;112.57;106.33;;;14.80;99.90;;;;;;4408667;32;20168;-63
2021/10/19 06:26:45;;;;;;;105.90;99.63;;;14.80;99.90;;;;;;4407070;32;20160;-63
2021/10/19 06:29:14;;;;;;;116.10;109.63;;;14.80;99.90;;;;;;4407247;32;20521;-63
2021/10/19 06:31:41;;;;;;;110.53;104.13;;;14.80;99.90;;;;;;4407122;32;20156;-63
2021/10/19 06:34:09;;;;;;;108.50;102.03;;;14.80;99.90;;;;;;4407281;32;20148;-63
2021/10/19 06:36:36;;;;;;;109.93;103.20;;;14.80;99.90;;;;;;4406207;32;20194;-63
2021/10/19 06:39:04;;;;;;;101.33;94.93;;;14.90;99.90;;;;;;4406568;32;20588;-63
2021/10/19 06:41:31;;;;;;;113.20;106.67;;;14.80;99.90;;;;;;4408765;32;20222;-63
2021/10/19 06:43:58;;;;;;;112.50;105.60;;;14.80;99.90;;;;;;4406787;32;20159;-64
2021/10/19 06:46:29;;;;;;;105.77;99.03;;;14.90;99.90;;;;;;4407267;32;20476;-63
2021/10/19 06:48:56;;;;;;;112.63;106.00;;;14.90;99.90;;;;;;4407073;32;20205;-63
2021/10/19 06:51:24;;;;;;;102.90;96.57;;;14.90;99.90;;;;;;4406671;32;20156;-63
2021/10/19 06:53:50;;;;;;;100.23;94.17;;;14.90;99.90;;;;;;4406399;32;20600;-63
2021/10/19 06:56:47;;;;;;;102.17;95.97;;;15.00;99.90;;;;;;4407229;32;20194;-64
2021/10/19 06:59:14;;;;;;;100.53;94.30;;;15.00;99.90;;;;;;4408339;32;20584;-63
2021/10/19 07:01:42;;;;;;;104.57;98.23;;;15.00;99.90;;;;;;4406397;32;20599;-63
2021/10/19 07:04:09;;;;;;;106.07;99.70;;;15.00;99.90;;;;;;4408644;32;20494;-63
2021/10/19 07:06:36;;;;;;;102.90;96.30;;;15.00;99.90;;;;;;4406834;32;20179;-63
2021/10/19 07:09:03;;;;;;;103.63;97.40;;;15.00;99.90;;;;;;4406987;32;20182;-63
2021/10/19 07:11:30;;;;;;;105.57;99.07;;;15.00;99.90;;;;;;4406604;32;20164;-63
2021/10/19 07:13:59;;;;;;;103.97;97.17;;;15.10;99.90;;;;;;4406893;32;20210;-63
2021/10/19 07:16:26;;;;;;;100.17;93.83;;;15.10;99.90;;;;;;4404893;32;20511;-63
2021/10/19 07:18:54;;;;;;;97.60;91.17;;;15.10;99.90;;;;;;4406797;32;20575;-63
2021/10/19 07:21:24;;;;;;;108.87;101.77;;;15.10;99.90;;;;;;4406326;32;20193;-63
2021/10/19 07:23:51;;;;;;;100.70;94.73;;;15.20;99.90;;;;;;4406740;32;20170;-63
2021/10/19 07:26:18;;;;;;;105.90;99.50;;;15.20;99.90;;;;;;4406299;32;20191;-63
2021/10/19 07:28:45;;;;;;;99.50;93.23;;;15.20;99.90;;;;;;4406226;32;20167;-63
2021/10/19 07:31:11;;;;;;;96.43;89.80;;;15.20;99.90;;;;;;4391330;32;20152;-62
2021/10/19 07:33:38;;;;;;;95.30;89.27;;;15.20;99.90;;;;;;4397289;32;20195;-63
2021/10/19 07:36:09;;;;;;;93.47;87.57;;;15.30;99.90;;;;;;4403094;32;20219;-63
2021/10/19 07:38:36;;;;;;;98.27;92.27;;;15.30;99.90;;;;;;4403834;32;20175;-63
2021/10/19 07:41:03;;;;;;;107.53;101.17;;;15.30;99.90;;;;;;4399745;32;20507;-63
2021/10/19 07:43:30;;;;;;;96.63;90.67;;;15.30;99.90;;;;;;4400995;32;20171;-63
2021/10/19 07:45:57;;;;;;;98.30;92.37;;;15.40;99.90;;;;;;4398528;32;20164;-63
2021/10/19 07:48:24;;;;;;;99.03;92.80;;;15.30;99.90;;;;;;4398601;32;20194;-62
2021/10/19 07:50:51;;;;;;;107.20;100.40;;;15.40;99.90;;;;;;4398693;32;20160;-61
2021/10/19 07:53:19;;;;;;;108.07;101.63;;;15.40;99.90;;;;;;4404368;32;20842;-62
2021/10/19 07:55:46;;;;;;;107.43;101.10;;;15.40;99.90;;;;;;4405776;32;20305;-62
2021/10/19 07:58:13;;;;;;;113.90;107.30;;;15.50;99.90;;;;;;4405725;32;20227;-62
2021/10/19 08:00:40;;;;;;;111.67;105.33;;;15.50;99.90;;;;;;4405970;32;20158;-62
2021/10/19 08:03:07;;;;;;;105.00;98.77;;;15.60;99.90;;;;;;4404325;32;20167;-62
2021/10/19 08:05:34;;;;;;;97.90;92.17;;;15.60;99.90;;;;;;4405097;32;20156;-61
2021/10/19 08:08:09;;;;;;;95.23;89.30;;;15.60;99.90;;;;;;4400647;32;20182;-62
2021/10/19 08:10:38;;;;;;;103.63;97.73;;;15.70;99.90;;;;;;4403523;32;20186;-62
2021/10/19 08:13:06;;;;;;;101.93;95.73;;;15.70;99.90;;;;;;4404815;32;20167;-62
2021/10/19 08:15:34;;;;;;;95.57;90.03;;;15.70;99.90;;;;;;4406264;32;20498;-62
2021/10/19 08:18:01;;;;;;;93.03;87.63;;;15.80;99.90;;;;;;4400572;32;20584;-62
2021/10/19 08:20:28;;;;;;;81.67;76.80;;;15.80;99.90;;;;;;4396168;32;20472;-62
2021/10/19 08:22:55;;;;;;;84.03;79.03;;;15.80;99.90;;;;;;4399102;32;20168;-62
2021/10/19 08:25:22;;;;;;;80.77;75.93;;;15.80;99.90;;;;;;4396658;32;20202;-62
2021/10/19 08:27:50;;;;;;;88.43;83.27;;;15.80;99.90;;;;;;4398653;32;20226;-62
2021/10/19 08:30:18;;;;;;;93.17;87.83;;;15.80;99.90;;;;;;4396643;32;20168;-62
2021/10/19 08:32:46;;;;;;;89.93;84.77;;;15.80;99.90;;;;;;4396563;32;20224;-62
2021/10/19 08:35:14;;;;;;;94.67;89.23;;;15.80;99.90;;;;;;4398780;32;20184;-63
2021/10/19 08:37:42;;;;;;;85.97;80.77;;;15.90;99.90;;;;;;4396646;32;20172;-62
2021/10/19 08:40:10;;;;;;;79.60;74.80;;;15.90;99.90;;;;;;4399053;32;20251;-62
2021/10/19 08:42:44;;;;;;;78.90;74.10;;;15.90;99.90;;;;;;4394055;32;20182;-63
2021/10/19 08:45:14;;;;;;;84.50;79.70;;;15.90;99.90;;;;;;4403349;32;20160;-62
2021/10/19 08:47:42;;;;;;;82.53;77.57;;;16.00;99.90;;;;;;4405240;32;20144;-63
2021/10/19 08:50:10;;;;;;;85.90;80.80;;;16.00;99.90;;;;;;4407203;32;20210;-63
2021/10/19 08:52:37;;;;;;;83.37;78.57;;;16.00;99.90;;;;;;4405740;32;20172;-63
2021/10/19 08:55:04;;;;;;;79.00;74.23;;;16.00;99.90;;;;;;4406421;32;20167;-63
2021/10/19 08:57:32;;;;;;;84.83;79.73;;;16.00;99.90;;;;;;4405824;32;20520;-63
2021/10/19 08:59:59;;;;;;;87.90;82.83;;;16.00;99.90;;;;;;4406577;32;20238;-62
2021/10/19 09:02:38;;;;;;;86.77;81.80;;;16.10;99.90;;;;;;4405475;32;20172;-63
2021/10/19 09:05:07;;;;;;;92.10;86.63;;;16.10;99.90;;;;;;4405721;32;20203;-63
2021/10/19 09:07:34;;;;;;;90.53;85.10;;;16.00;99.90;;;;;;4405216;32;20218;-63
2021/10/19 09:10:00;;;;;;;96.10;90.83;;;16.00;99.90;;;;;;4407193;32;20630;-63
2021/10/19 09:12:27;;;;;;;98.47;93.13;;;16.10;99.90;;;;;;4405524;32;20152;-63
2021/10/19 09:15:05;;;;;;;92.17;87.07;;;16.20;99.90;;;;;;4407193;32;20152;-63
2021/10/19 09:17:39;;;;;;;83.70;79.00;;;16.20;99.90;;;;;;4406179;32;20155;-63
2021/10/19 09:20:15;;;;;;;83.30;78.90;;;16.30;99.90;;;;;;4407164;32;20593;-63
2021/10/19 09:22:55;;;;;;;86.87;82.17;;;16.30;99.90;;;;;;4405436;32;20178;-63
2021/10/19 09:25:31;;;;;;;84.60;80.23;;;16.40;99.90;;;;;;4405420;32;20156;-62
2021/10/19 09:28:00;;;;;;;74.90;70.70;;;16.40;99.90;;;;;;4405335;32;20170;-62
2021/10/19 09:30:40;;;;;;;80.50;76.03;;;16.40;99.90;;;;;;4406496;32;20219;-62
2021/10/19 09:33:12;;;;;;;80.23;75.93;;;16.40;99.90;;;;;;4405152;32;20164;-62
2021/10/19 09:35:39;;;;;;;79.53;75.07;;;16.40;99.90;;;;;;4406750;32;20215;-63
2021/10/19 09:38:08;;;;;;;79.37;75.23;;;16.40;99.90;;;;;;4405088;32;20205;-63
2021/10/19 09:40:37;;;;;;;80.20;75.70;;;16.40;99.90;;;;;;4407080;32;20478;-63
2021/10/19 09:43:06;;;;;;;77.23;72.60;;;16.40;99.90;;;;;;4408008;32;20171;-63
2021/10/19 09:45:34;;;;;;;75.97;71.70;;;16.30;99.90;;;;;;4408274;32;20147;-63
2021/10/19 09:48:01;;;;;;;81.67;77.07;;;16.40;99.90;;;;;;4408229;32;20166;-63
2021/10/19 09:50:30;;;;;;;77.77;73.27;;;16.40;99.90;;;;;;4408259;32;20151;-63
2021/10/19 09:52:58;;;;;;;78.37;73.77;;;16.40;99.90;;;;;;4408123;32;20152;-62
2021/10/19 09:55:25;;;;;;;81.80;76.87;;;16.40;99.90;;;;;;4409795;32;20140;-62
2021/10/19 09:57:52;;;;;;;85.37;80.20;;;16.40;99.90;;;;;;4408102;32;20186;-63
2021/10/19 10:00:21;;;;;;;93.73;88.33;;;16.40;99.90;;;;;;4408066;32;20235;-63
2021/10/19 10:02:48;;;;;;;92.10;86.63;;;16.40;99.90;;;;;;4409701;32;20171;-62
2021/10/19 10:05:16;;;;;;;91.67;86.23;;;16.50;99.90;;;;;;4409331;32;20200;-63
2021/10/19 10:07:48;;;;;;;86.40;81.17;;;16.60;99.90;;;;;;4407840;32;20180;-63
2021/10/19 10:10:17;;;;;;;90.93;85.37;;;16.60;99.90;;;;;;4409630;32;20159;-63
2021/10/19 10:12:49;;;;;;;91.97;86.40;;;16.60;99.90;;;;;;4409280;32;20595;-63
2021/10/19 10:15:25;;;;;;;94.60;88.83;;;16.60;99.90;;;;;;4409551;32;20149;-63
2021/10/19 10:17:56;;;;;;;90.67;85.10;;;16.70;99.90;;;;;;4409494;32;20165;-63
2021/10/19 10:20:31;;;;;;;96.00;90.07;;;16.70;99.90;;;;;;4407891;32;20156;-63
2021/10/19 10:23:10;;;;;;;92.80;86.77;;;16.70;99.90;;;;;;4407624;32;20199;-63
2021/10/19 10:25:38;;;;;;;97.10;90.97;;;16.80;99.90;;;;;;4409364;32;20207;-63
2021/10/19 10:28:11;;;;;;;96.60;90.23;;;16.80;99.90;;;;;;4407572;32;20175;-63
2021/10/19 10:30:39;;;;;;;91.80;85.70;;;16.80;99.90;;;;;;4407627;32;20168;-63
2021/10/19 10:33:07;;;;;;;97.53;91.07;;;16.80;99.90;;;;;;4409083;32;20205;-62
2021/10/19 10:35:35;;;;;;;87.43;81.73;;;16.90;99.90;;;;;;4407513;32;20152;-62
2021/10/19 10:38:04;;;;;;;88.60;82.37;;;17.00;99.90;;;;;;4407359;32;20204;-62
2021/10/19 10:40:33;;;;;;;97.83;91.50;;;17.00;99.90;;;;;;4407361;32;20163;-63
2021/10/19 10:43:02;;;;;;;91.80;85.53;;;17.00;99.90;;;;;;4407184;32;20607;-63
2021/10/19 10:45:34;;;;;;;83.83;77.67;;;17.10;99.90;;;;;;4407319;32;20195;-63
2021/10/19 10:48:03;;;;;;;94.47;87.77;;;17.10;99.90;;;;;;4408034;32;20182;-63
2021/10/19 10:50:32;;;;;;;87.03;81.23;;;17.20;99.90;;;;;;4406951;32;20191;-63
2021/10/19 10:53:01;;;;;;;89.73;83.47;;;17.20;99.90;;;;;;4408562;32;20576;-63
2021/10/19 10:55:33;;;;;;;85.60;79.77;;;17.20;99.90;;;;;;4407163;32;20170;-62
2021/10/19 10:58:00;;;;;;;89.47;83.33;;;17.20;99.90;;;;;;4407230;32;20152;-63
2021/10/19 11:00:30;;;;;;;83.60;77.60;;;17.20;99.90;;;;;;4407086;32;20171;-63
2021/10/19 11:03:10;;;;;;;85.37;79.47;;;17.20;99.90;;;;;;4408930;32;20151;-63
2021/10/19 11:05:38;;;;;;;82.63;76.27;;;17.30;99.90;;;;;;4407087;32;20156;-62
2021/10/19 11:08:10;;;;;;;90.90;84.30;;;17.30;99.90;;;;;;4407023;32;20182;-62
2021/10/19 11:10:41;;;;;;;87.47;81.80;;;17.30;99.90;;;;;;4408468;32;20186;-63
2021/10/19 11:13:08;;;;;;;90.60;84.43;;;17.40;99.90;;;;;;4407141;32;20174;-62
2021/10/19 11:15:35;;;;;;;91.87;85.23;;;17.30;99.90;;;;;;4407319;32;20469;-63
2021/10/19 11:18:03;;;;;;;83.70;77.97;;;17.30;99.90;;;;;;4407234;32;20148;-63
2021/10/19 11:20:30;;;;;;;93.60;86.73;;;17.40;99.90;;;;;;4406949;32;20162;-63
2021/10/19 11:22:57;;;;;;;90.67;84.10;;;17.40;99.90;;;;;;4406762;32;20459;-63
2021/10/19 11:25:24;;;;;;;91.77;85.50;;;17.40;99.90;;;;;;4407167;32;20185;-63
2021/10/19 11:27:53;;;;;;;84.93;79.03;;;17.40;99.90;;;;;;4406521;32;20182;-63
2021/10/19 11:30:22;;;;;;;84.13;78.30;;;17.50;99.90;;;;;;4407249;32;20560;-63
2021/10/19 11:32:49;;;;;;;101.37;94.10;;;17.50;99.90;;;;;;4406757;32;20177;-63
2021/10/19 11:35:18;;;;;;;90.10;83.60;;;17.60;99.90;;;;;;4406683;32;20151;-63
2021/10/19 11:37:45;;;;;;;88.87;82.60;;;17.60;99.90;;;;;;4408151;32;20441;-62
2021/10/19 11:40:16;;;;;;;91.00;84.47;;;17.60;99.90;;;;;;4406476;32;20170;-62
2021/10/19 11:42:45;;;;;;;95.10;89.23;;;17.60;99.90;;;;;;4408290;32;20152;-62
2021/10/19 11:45:16;;;;;;;84.63;78.83;;;17.60;99.90;;;;;;4407011;32;20170;-62
2021/10/19 11:47:48;;;;;;;92.03;85.70;;;17.70;99.90;;;;;;4406522;32;20167;-62
2021/10/19 11:50:19;;;;;;;86.33;80.53;;;17.70;99.90;;;;;;4406664;32;20171;-62
2021/10/19 11:52:47;;;;;;;94.27;88.37;;;17.70;99.90;;;;;;4406286;32;20187;-62
2021/10/19 11:55:16;;;;;;;99.63;93.43;;;17.70;99.90;;;;;;4408038;32;20170;-62
2021/10/19 11:57:43;;;;;;;84.70;79.20;;;17.70;99.90;;;;;;4406911;32;20171;-62
2021/10/19 12:00:11;;;;;;;86.97;81.23;;;17.60;99.90;;;;;;4406252;32;20170;-62
2021/10/19 12:02:49;;;;;;;88.83;82.93;;;17.60;99.90;;;;;;4405646;32;20167;-62
2021/10/19 12:05:16;;;;;;;81.43;76.13;;;17.60;99.90;;;;;;4407853;32;20163;-61
2021/10/19 12:07:49;;;;;;;81.93;76.20;;;17.60;99.90;;;;;;4405961;32;20184;-62
2021/10/19 12:10:18;;;;;;;88.07;82.17;;;17.60;99.90;;;;;;4406205;32;20160;-62
2021/10/19 12:12:57;;;;;;;86.97;81.30;;;17.50;99.90;;;;;;4406119;32;20147;-62
2021/10/19 12:15:25;;;;;;;81.67;76.07;;;17.60;99.90;;;;;;4406130;32;20151;-62
2021/10/19 12:17:56;;;;;;;84.40;78.40;;;17.60;99.90;;;;;;4407352;32;20483;-62
2021/10/19 12:20:23;;;;;;;85.80;79.93;;;17.60;99.90;;;;;;4407338;32;20185;-62
2021/10/19 12:22:50;;;;;;;89.23;83.33;;;17.70;99.90;;;;;;4405940;32;20179;-62
2021/10/19 12:25:17;;;;;;;87.57;81.60;;;17.70;99.90;;;;;;4407634;32;20214;-62
2021/10/19 12:27:44;;;;;;;94.30;87.70;;;17.70;99.90;;;;;;4405887;32;20207;-62